sensor_id;sensor_type;location;lat;lon;timestamp;P1;durP1;ratioP1;P2;durP2;ratioP2
60979;SDS011;46851;49.160;8.980;2023-07-24T00:00:49;10.15;;;6.38;;
60979;SDS011;46851;49.160;8.980;2023-07-24T00:03:15;10.32;;;6.20;;
60979;SDS011;46851;49.160;8.980;2023-07-24T00:05:41;11.32;;;6.65;;
60979;SDS011;46851;49.160;8.980;2023-07-24T00:08:07;15.10;;;6.95;;
60979;SDS011;46851;49.160;8.980;2023-07-24T00:10:33;11.68;;;6.53;;
60979;SDS011;46851;49.160;8.980;2023-07-24T00:12:59;12.55;;;6.57;;
60979;SDS011;46851;49.160;8.980;2023-07-24T00:15:25;13.85;;;7.35;;
60979;SDS011;46851;49.160;8.980;2023-07-24T00:17:51;11.38;;;6.50;;
60979;SDS011;46851;49.160;8.980;2023-07-24T00:20:17;10.10;;;6.53;;
60979;SDS011;46851;49.160;8.980;2023-07-24T00:22:43;12.15;;;6.22;;
60979;SDS011;46851;49.160;8.980;2023-07-24T00:25:09;11.73;;;6.40;;
60979;SDS011;46851;49.160;8.980;2023-07-24T00:27:35;11.10;;;6.28;;
60979;SDS011;46851;49.160;8.980;2023-07-24T00:30:01;9.60;;;6.10;;
60979;SDS011;46851;49.160;8.980;2023-07-24T00:32:27;10.27;;;6.00;;
60979;SDS011;46851;49.160;8.980;2023-07-24T00:34:53;12.32;;;6.40;;
60979;SDS011;46851;49.160;8.980;2023-07-24T00:37:19;11.48;;;6.32;;
60979;SDS011;46851;49.160;8.980;2023-07-24T00:39:45;13.18;;;6.40;;
60979;SDS011;46851;49.160;8.980;2023-07-24T00:42:11;10.35;;;6.05;;
60979;SDS011;46851;49.160;8.980;2023-07-24T00:44:36;13.25;;;6.60;;
60979;SDS011;46851;49.160;8.980;2023-07-24T00:47:03;9.82;;;6.22;;
60979;SDS011;46851;49.160;8.980;2023-07-24T00:49:29;11.63;;;6.90;;
60979;SDS011;46851;49.160;8.980;2023-07-24T00:51:55;10.07;;;6.45;;
60979;SDS011;46851;49.160;8.980;2023-07-24T00:54:21;11.48;;;7.03;;
60979;SDS011;46851;49.160;8.980;2023-07-24T00:56:47;11.10;;;6.60;;
60979;SDS011;46851;49.160;8.980;2023-07-24T00:59:14;11.13;;;6.57;;
60979;SDS011;46851;49.160;8.980;2023-07-24T01:01:40;12.60;;;6.75;;
60979;SDS011;46851;49.160;8.980;2023-07-24T01:04:07;11.32;;;6.50;;
60979;SDS011;46851;49.160;8.980;2023-07-24T01:06:33;9.27;;;5.95;;
60979;SDS011;46851;49.160;8.980;2023-07-24T01:08:59;12.65;;;6.72;;
60979;SDS011;46851;49.160;8.980;2023-07-24T01:11:28;12.55;;;7.03;;
60979;SDS011;46851;49.160;8.980;2023-07-24T01:14:08;12.52;;;7.05;;
60979;SDS011;46851;49.160;8.980;2023-07-24T01:16:39;10.32;;;6.45;;
60979;SDS011;46851;49.160;8.980;2023-07-24T01:19:20;11.25;;;6.60;;
60979;SDS011;46851;49.160;8.980;2023-07-24T01:22:33;10.93;;;6.72;;
60979;SDS011;46851;49.160;8.980;2023-07-24T01:24:47;12.43;;;6.87;;
60979;SDS011;46851;49.160;8.980;2023-07-24T01:27:23;12.15;;;6.57;;
60979;SDS011;46851;49.160;8.980;2023-07-24T01:29:49;14.32;;;6.50;;
60979;SDS011;46851;49.160;8.980;2023-07-24T01:32:15;10.55;;;6.50;;
60979;SDS011;46851;49.160;8.980;2023-07-24T01:34:41;9.90;;;6.30;;
60979;SDS011;46851;49.160;8.980;2023-07-24T01:37:07;13.70;;;6.65;;
60979;SDS011;46851;49.160;8.980;2023-07-24T01:39:34;12.27;;;6.88;;
60979;SDS011;46851;49.160;8.980;2023-07-24T01:42:00;15.32;;;6.78;;
60979;SDS011;46851;49.160;8.980;2023-07-24T01:44:26;10.18;;;6.47;;
60979;SDS011;46851;49.160;8.980;2023-07-24T01:46:52;13.32;;;7.75;;
60979;SDS011;46851;49.160;8.980;2023-07-24T01:49:18;13.80;;;6.75;;
60979;SDS011;46851;49.160;8.980;2023-07-24T01:51:44;9.80;;;6.30;;
60979;SDS011;46851;49.160;8.980;2023-07-24T01:54:10;12.70;;;6.47;;
60979;SDS011;46851;49.160;8.980;2023-07-24T01:56:36;13.82;;;6.85;;
60979;SDS011;46851;49.160;8.980;2023-07-24T01:59:04;11.65;;;6.93;;
60979;SDS011;46851;49.160;8.980;2023-07-24T02:01:30;10.70;;;6.90;;
60979;SDS011;46851;49.160;8.980;2023-07-24T02:03:57;13.15;;;7.25;;
60979;SDS011;46851;49.160;8.980;2023-07-24T02:06:23;11.18;;;6.60;;
60979;SDS011;46851;49.160;8.980;2023-07-24T02:08:49;13.80;;;7.15;;
60979;SDS011;46851;49.160;8.980;2023-07-24T02:11:16;12.63;;;6.63;;
60979;SDS011;46851;49.160;8.980;2023-07-24T02:13:46;11.52;;;7.15;;
60979;SDS011;46851;49.160;8.980;2023-07-24T02:16:12;11.82;;;6.97;;
60979;SDS011;46851;49.160;8.980;2023-07-24T02:18:40;11.65;;;7.82;;
60979;SDS011;46851;49.160;8.980;2023-07-24T02:21:06;11.57;;;6.95;;
60979;SDS011;46851;49.160;8.980;2023-07-24T02:23:32;15.40;;;7.32;;
60979;SDS011;46851;49.160;8.980;2023-07-24T02:25:58;12.48;;;7.47;;
60979;SDS011;46851;49.160;8.980;2023-07-24T02:28:24;10.65;;;6.65;;
60979;SDS011;46851;49.160;8.980;2023-07-24T02:30:50;46.05;;;17.73;;
60979;SDS011;46851;49.160;8.980;2023-07-24T02:33:17;45.20;;;20.02;;
60979;SDS011;46851;49.160;8.980;2023-07-24T02:35:43;17.75;;;9.45;;
60979;SDS011;46851;49.160;8.980;2023-07-24T02:38:09;16.05;;;8.70;;
60979;SDS011;46851;49.160;8.980;2023-07-24T02:40:35;14.52;;;7.80;;
60979;SDS011;46851;49.160;8.980;2023-07-24T02:43:01;14.20;;;7.53;;
60979;SDS011;46851;49.160;8.980;2023-07-24T02:45:27;14.40;;;8.60;;
60979;SDS011;46851;49.160;8.980;2023-07-24T02:47:53;14.90;;;7.90;;
60979;SDS011;46851;49.160;8.980;2023-07-24T02:50:19;13.13;;;7.65;;
60979;SDS011;46851;49.160;8.980;2023-07-24T02:52:45;16.35;;;8.60;;
60979;SDS011;46851;49.160;8.980;2023-07-24T02:55:11;16.00;;;8.73;;
60979;SDS011;46851;49.160;8.980;2023-07-24T02:57:37;15.98;;;7.80;;
60979;SDS011;46851;49.160;8.980;2023-07-24T03:00:03;15.02;;;8.20;;
60979;SDS011;46851;49.160;8.980;2023-07-24T03:02:29;18.85;;;8.85;;
60979;SDS011;46851;49.160;8.980;2023-07-24T03:04:55;17.50;;;8.10;;
60979;SDS011;46851;49.160;8.980;2023-07-24T03:07:21;19.50;;;8.48;;
60979;SDS011;46851;49.160;8.980;2023-07-24T03:09:47;18.50;;;8.50;;
60979;SDS011;46851;49.160;8.980;2023-07-24T03:12:13;12.50;;;7.80;;
60979;SDS011;46851;49.160;8.980;2023-07-24T03:14:39;12.45;;;7.60;;
60979;SDS011;46851;49.160;8.980;2023-07-24T03:17:05;13.30;;;8.00;;
60979;SDS011;46851;49.160;8.980;2023-07-24T03:19:31;14.55;;;8.32;;
60979;SDS011;46851;49.160;8.980;2023-07-24T03:21:57;16.98;;;8.57;;
60979;SDS011;46851;49.160;8.980;2023-07-24T03:24:23;18.08;;;8.90;;
60979;SDS011;46851;49.160;8.980;2023-07-24T03:26:49;15.63;;;8.40;;
60979;SDS011;46851;49.160;8.980;2023-07-24T03:29:15;16.00;;;7.82;;
60979;SDS011;46851;49.160;8.980;2023-07-24T03:31:41;15.23;;;7.57;;
60979;SDS011;46851;49.160;8.980;2023-07-24T03:34:07;14.98;;;7.35;;
60979;SDS011;46851;49.160;8.980;2023-07-24T03:36:33;15.98;;;8.82;;
60979;SDS011;46851;49.160;8.980;2023-07-24T03:39:00;17.65;;;7.90;;
60979;SDS011;46851;49.160;8.980;2023-07-24T03:41:27;14.23;;;8.05;;
60979;SDS011;46851;49.160;8.980;2023-07-24T03:43:53;17.05;;;8.80;;
60979;SDS011;46851;49.160;8.980;2023-07-24T03:46:19;17.77;;;8.40;;
60979;SDS011;46851;49.160;8.980;2023-07-24T03:48:45;14.43;;;7.70;;
60979;SDS011;46851;49.160;8.980;2023-07-24T03:51:11;16.35;;;8.02;;
60979;SDS011;46851;49.160;8.980;2023-07-24T03:53:37;15.93;;;7.30;;
60979;SDS011;46851;49.160;8.980;2023-07-24T03:56:03;17.38;;;9.68;;
60979;SDS011;46851;49.160;8.980;2023-07-24T03:58:29;15.57;;;9.25;;
60979;SDS011;46851;49.160;8.980;2023-07-24T04:00:55;16.63;;;9.23;;
60979;SDS011;46851;49.160;8.980;2023-07-24T04:08:40;15.98;;;7.63;;
60979;SDS011;46851;49.160;8.980;2023-07-24T04:11:06;14.80;;;7.82;;
60979;SDS011;46851;49.160;8.980;2023-07-24T04:13:32;18.67;;;7.78;;
60979;SDS011;46851;49.160;8.980;2023-07-24T04:15:57;15.85;;;9.50;;
60979;SDS011;46851;49.160;8.980;2023-07-24T04:18:24;16.55;;;8.45;;
60979;SDS011;46851;49.160;8.980;2023-07-24T04:20:50;13.45;;;7.72;;
60979;SDS011;46851;49.160;8.980;2023-07-24T04:23:16;13.18;;;7.30;;
60979;SDS011;46851;49.160;8.980;2023-07-24T04:25:42;14.52;;;8.40;;
60979;SDS011;46851;49.160;8.980;2023-07-24T04:28:08;13.88;;;8.45;;
60979;SDS011;46851;49.160;8.980;2023-07-24T04:30:34;12.57;;;7.55;;
60979;SDS011;46851;49.160;8.980;2023-07-24T04:33:00;12.93;;;7.55;;
60979;SDS011;46851;49.160;8.980;2023-07-24T04:35:26;16.05;;;7.63;;
60979;SDS011;46851;49.160;8.980;2023-07-24T04:37:52;11.68;;;7.47;;
60979;SDS011;46851;49.160;8.980;2023-07-24T04:40:18;14.38;;;7.78;;
60979;SDS011;46851;49.160;8.980;2023-07-24T04:42:44;15.80;;;8.00;;
60979;SDS011;46851;49.160;8.980;2023-07-24T04:45:10;12.68;;;7.38;;
60979;SDS011;46851;49.160;8.980;2023-07-24T04:47:36;17.60;;;8.40;;
60979;SDS011;46851;49.160;8.980;2023-07-24T04:50:03;14.02;;;7.60;;
60979;SDS011;46851;49.160;8.980;2023-07-24T04:52:30;16.23;;;7.78;;
60979;SDS011;46851;49.160;8.980;2023-07-24T04:54:56;13.82;;;7.30;;
60979;SDS011;46851;49.160;8.980;2023-07-24T04:57:22;12.18;;;7.28;;
60979;SDS011;46851;49.160;8.980;2023-07-24T04:59:48;13.45;;;7.20;;
60979;SDS011;46851;49.160;8.980;2023-07-24T05:02:14;14.30;;;8.02;;
60979;SDS011;46851;49.160;8.980;2023-07-24T05:04:40;13.20;;;7.00;;
60979;SDS011;46851;49.160;8.980;2023-07-24T05:07:06;15.50;;;7.25;;
60979;SDS011;46851;49.160;8.980;2023-07-24T05:09:32;14.52;;;7.05;;
60979;SDS011;46851;49.160;8.980;2023-07-24T05:11:58;12.60;;;7.30;;
60979;SDS011;46851;49.160;8.980;2023-07-24T05:14:24;12.68;;;7.22;;
60979;SDS011;46851;49.160;8.980;2023-07-24T05:16:50;13.00;;;7.22;;
60979;SDS011;46851;49.160;8.980;2023-07-24T05:19:16;17.85;;;7.15;;
60979;SDS011;46851;49.160;8.980;2023-07-24T05:21:42;14.35;;;7.15;;
60979;SDS011;46851;49.160;8.980;2023-07-24T05:24:08;14.57;;;7.72;;
60979;SDS011;46851;49.160;8.980;2023-07-24T05:26:34;16.38;;;7.95;;
60979;SDS011;46851;49.160;8.980;2023-07-24T05:29:00;15.77;;;7.97;;
60979;SDS011;46851;49.160;8.980;2023-07-24T05:31:26;16.10;;;7.78;;
60979;SDS011;46851;49.160;8.980;2023-07-24T05:33:52;17.95;;;7.80;;
60979;SDS011;46851;49.160;8.980;2023-07-24T05:36:18;14.48;;;7.53;;
60979;SDS011;46851;49.160;8.980;2023-07-24T05:38:44;15.82;;;8.05;;
60979;SDS011;46851;49.160;8.980;2023-07-24T05:41:10;16.55;;;7.85;;
60979;SDS011;46851;49.160;8.980;2023-07-24T05:43:36;15.27;;;7.13;;
60979;SDS011;46851;49.160;8.980;2023-07-24T05:46:02;13.73;;;6.88;;
60979;SDS011;46851;49.160;8.980;2023-07-24T05:48:28;16.60;;;7.43;;
60979;SDS011;46851;49.160;8.980;2023-07-24T05:50:54;12.43;;;7.72;;
60979;SDS011;46851;49.160;8.980;2023-07-24T05:53:20;15.68;;;7.45;;
60979;SDS011;46851;49.160;8.980;2023-07-24T05:55:46;15.95;;;7.95;;
60979;SDS011;46851;49.160;8.980;2023-07-24T05:58:12;14.75;;;7.60;;
60979;SDS011;46851;49.160;8.980;2023-07-24T06:00:38;14.07;;;7.28;;
60979;SDS011;46851;49.160;8.980;2023-07-24T06:03:04;13.93;;;7.05;;
60979;SDS011;46851;49.160;8.980;2023-07-24T06:05:30;16.17;;;8.02;;
60979;SDS011;46851;49.160;8.980;2023-07-24T06:07:56;12.13;;;6.80;;
60979;SDS011;46851;49.160;8.980;2023-07-24T06:10:22;15.30;;;7.07;;
60979;SDS011;46851;49.160;8.980;2023-07-24T06:12:48;14.85;;;9.13;;
60979;SDS011;46851;49.160;8.980;2023-07-24T06:15:14;15.10;;;7.28;;
60979;SDS011;46851;49.160;8.980;2023-07-24T06:17:40;12.60;;;7.05;;
60979;SDS011;46851;49.160;8.980;2023-07-24T06:20:06;11.98;;;7.10;;
60979;SDS011;46851;49.160;8.980;2023-07-24T06:22:32;13.27;;;7.57;;
60979;SDS011;46851;49.160;8.980;2023-07-24T06:24:58;13.30;;;6.75;;
60979;SDS011;46851;49.160;8.980;2023-07-24T06:27:24;12.55;;;7.47;;
60979;SDS011;46851;49.160;8.980;2023-07-24T06:29:51;14.02;;;6.38;;
60979;SDS011;46851;49.160;8.980;2023-07-24T06:32:17;14.45;;;7.63;;
60979;SDS011;46851;49.160;8.980;2023-07-24T06:34:43;15.90;;;7.32;;
60979;SDS011;46851;49.160;8.980;2023-07-24T06:37:09;21.65;;;8.18;;
60979;SDS011;46851;49.160;8.980;2023-07-24T06:39:35;15.60;;;7.18;;
60979;SDS011;46851;49.160;8.980;2023-07-24T06:42:01;15.82;;;7.22;;
60979;SDS011;46851;49.160;8.980;2023-07-24T06:44:28;14.88;;;7.07;;
60979;SDS011;46851;49.160;8.980;2023-07-24T06:46:54;13.63;;;7.90;;
60979;SDS011;46851;49.160;8.980;2023-07-24T06:49:20;15.15;;;7.80;;
60979;SDS011;46851;49.160;8.980;2023-07-24T06:51:46;13.18;;;7.57;;
60979;SDS011;46851;49.160;8.980;2023-07-24T06:54:12;19.58;;;7.95;;
60979;SDS011;46851;49.160;8.980;2023-07-24T06:56:38;16.67;;;7.68;;
60979;SDS011;46851;49.160;8.980;2023-07-24T06:59:04;14.40;;;7.32;;
60979;SDS011;46851;49.160;8.980;2023-07-24T07:01:30;16.75;;;8.10;;
60979;SDS011;46851;49.160;8.980;2023-07-24T07:03:56;13.32;;;7.65;;
60979;SDS011;46851;49.160;8.980;2023-07-24T07:06:22;13.98;;;7.53;;
60979;SDS011;46851;49.160;8.980;2023-07-24T07:08:48;15.27;;;6.97;;
60979;SDS011;46851;49.160;8.980;2023-07-24T07:11:14;12.82;;;7.13;;
60979;SDS011;46851;49.160;8.980;2023-07-24T07:13:40;15.05;;;7.57;;
60979;SDS011;46851;49.160;8.980;2023-07-24T07:16:06;16.80;;;7.50;;
60979;SDS011;46851;49.160;8.980;2023-07-24T07:18:32;15.35;;;7.53;;
60979;SDS011;46851;49.160;8.980;2023-07-24T07:20:58;15.65;;;7.63;;
60979;SDS011;46851;49.160;8.980;2023-07-24T07:23:24;13.15;;;7.60;;
60979;SDS011;46851;49.160;8.980;2023-07-24T07:25:50;13.98;;;7.18;;
60979;SDS011;46851;49.160;8.980;2023-07-24T07:28:16;15.40;;;7.03;;
60979;SDS011;46851;49.160;8.980;2023-07-24T07:33:50;16.45;;;6.90;;
60979;SDS011;46851;49.160;8.980;2023-07-24T07:36:16;18.02;;;7.53;;
60979;SDS011;46851;49.160;8.980;2023-07-24T07:38:47;17.85;;;7.85;;
60979;SDS011;46851;49.160;8.980;2023-07-24T07:41:14;20.48;;;7.80;;
60979;SDS011;46851;49.160;8.980;2023-07-24T07:43:40;14.45;;;7.43;;
60979;SDS011;46851;49.160;8.980;2023-07-24T07:46:06;18.15;;;7.93;;
60979;SDS011;46851;49.160;8.980;2023-07-24T07:48:32;34.28;;;8.85;;
60979;SDS011;46851;49.160;8.980;2023-07-24T07:50:58;27.08;;;7.72;;
60979;SDS011;46851;49.160;8.980;2023-07-24T07:53:24;25.70;;;8.48;;
60979;SDS011;46851;49.160;8.980;2023-07-24T07:55:56;26.15;;;8.27;;
60979;SDS011;46851;49.160;8.980;2023-07-24T07:58:23;22.67;;;8.50;;
60979;SDS011;46851;49.160;8.980;2023-07-24T08:00:49;20.60;;;7.90;;
60979;SDS011;46851;49.160;8.980;2023-07-24T08:03:15;26.98;;;8.45;;
60979;SDS011;46851;49.160;8.980;2023-07-24T08:05:41;15.63;;;7.68;;
60979;SDS011;46851;49.160;8.980;2023-07-24T08:08:07;12.57;;;7.35;;
60979;SDS011;46851;49.160;8.980;2023-07-24T08:10:33;21.42;;;8.00;;
60979;SDS011;46851;49.160;8.980;2023-07-24T08:12:59;17.15;;;7.93;;
60979;SDS011;46851;49.160;8.980;2023-07-24T08:15:25;15.82;;;7.80;;
60979;SDS011;46851;49.160;8.980;2023-07-24T08:17:51;31.80;;;9.15;;
60979;SDS011;46851;49.160;8.980;2023-07-24T08:20:17;31.48;;;9.50;;
60979;SDS011;46851;49.160;8.980;2023-07-24T08:22:43;20.30;;;8.80;;
60979;SDS011;46851;49.160;8.980;2023-07-24T08:25:08;20.45;;;9.00;;
60979;SDS011;46851;49.160;8.980;2023-07-24T08:27:34;13.27;;;7.80;;
60979;SDS011;46851;49.160;8.980;2023-07-24T08:30:00;16.27;;;8.38;;
60979;SDS011;46851;49.160;8.980;2023-07-24T08:32:26;25.90;;;8.02;;
60979;SDS011;46851;49.160;8.980;2023-07-24T08:34:53;23.63;;;8.85;;
60979;SDS011;46851;49.160;8.980;2023-07-24T08:37:19;18.13;;;8.40;;
60979;SDS011;46851;49.160;8.980;2023-07-24T08:39:45;20.33;;;9.13;;
60979;SDS011;46851;49.160;8.980;2023-07-24T08:42:11;17.67;;;8.82;;
60979;SDS011;46851;49.160;8.980;2023-07-24T08:44:38;16.02;;;7.97;;
60979;SDS011;46851;49.160;8.980;2023-07-24T08:47:04;14.32;;;7.82;;
60979;SDS011;46851;49.160;8.980;2023-07-24T08:49:32;16.05;;;8.60;;
60979;SDS011;46851;49.160;8.980;2023-07-24T08:51:58;26.63;;;14.68;;
60979;SDS011;46851;49.160;8.980;2023-07-24T08:54:25;18.05;;;8.82;;
60979;SDS011;46851;49.160;8.980;2023-07-24T08:56:52;16.25;;;9.00;;
60979;SDS011;46851;49.160;8.980;2023-07-24T08:59:20;16.40;;;8.02;;
60979;SDS011;46851;49.160;8.980;2023-07-24T09:01:46;15.35;;;8.63;;
60979;SDS011;46851;49.160;8.980;2023-07-24T09:04:12;15.05;;;8.68;;
60979;SDS011;46851;49.160;8.980;2023-07-24T09:06:38;15.40;;;8.52;;
60979;SDS011;46851;49.160;8.980;2023-07-24T09:09:14;18.40;;;8.63;;
60979;SDS011;46851;49.160;8.980;2023-07-24T09:11:48;15.57;;;8.60;;
60979;SDS011;46851;49.160;8.980;2023-07-24T09:14:27;18.83;;;8.20;;
60979;SDS011;46851;49.160;8.980;2023-07-24T09:17:28;14.50;;;8.75;;
60979;SDS011;46851;49.160;8.980;2023-07-24T09:19:54;13.05;;;8.48;;
60979;SDS011;46851;49.160;8.980;2023-07-24T09:22:21;15.02;;;8.43;;
60979;SDS011;46851;49.160;8.980;2023-07-24T09:24:50;17.80;;;8.05;;
60979;SDS011;46851;49.160;8.980;2023-07-24T09:27:17;16.67;;;7.80;;
60979;SDS011;46851;49.160;8.980;2023-07-24T09:29:43;15.07;;;8.23;;
60979;SDS011;46851;49.160;8.980;2023-07-24T09:32:19;14.25;;;7.50;;
60979;SDS011;46851;49.160;8.980;2023-07-24T09:34:45;11.82;;;7.40;;
60979;SDS011;46851;49.160;8.980;2023-07-24T09:37:21;15.15;;;7.85;;
60979;SDS011;46851;49.160;8.980;2023-07-24T09:39:47;12.25;;;7.10;;
60979;SDS011;46851;49.160;8.980;2023-07-24T09:42:13;11.57;;;7.18;;
60979;SDS011;46851;49.160;8.980;2023-07-24T09:44:39;13.00;;;6.78;;
60979;SDS011;46851;49.160;8.980;2023-07-24T09:47:06;13.68;;;7.65;;
60979;SDS011;46851;49.160;8.980;2023-07-24T09:49:32;14.30;;;7.55;;
60979;SDS011;46851;49.160;8.980;2023-07-24T09:51:58;11.75;;;7.75;;
60979;SDS011;46851;49.160;8.980;2023-07-24T09:54:30;10.77;;;6.78;;
60979;SDS011;46851;49.160;8.980;2023-07-24T09:56:58;12.70;;;8.07;;
60979;SDS011;46851;49.160;8.980;2023-07-24T09:59:24;15.30;;;6.90;;
60979;SDS011;46851;49.160;8.980;2023-07-24T10:01:52;14.95;;;6.78;;
60979;SDS011;46851;49.160;8.980;2023-07-24T10:04:18;14.57;;;6.93;;
60979;SDS011;46851;49.160;8.980;2023-07-24T10:06:45;15.43;;;7.22;;
60979;SDS011;46851;49.160;8.980;2023-07-24T10:09:12;12.82;;;7.63;;
60979;SDS011;46851;49.160;8.980;2023-07-24T10:11:38;15.05;;;8.00;;
60979;SDS011;46851;49.160;8.980;2023-07-24T10:14:04;15.07;;;7.35;;
60979;SDS011;46851;49.160;8.980;2023-07-24T10:16:30;13.73;;;7.25;;
60979;SDS011;46851;49.160;8.980;2023-07-24T10:18:56;13.20;;;7.80;;
60979;SDS011;46851;49.160;8.980;2023-07-24T10:21:26;15.50;;;8.32;;
60979;SDS011;46851;49.160;8.980;2023-07-24T10:23:53;14.73;;;7.90;;
60979;SDS011;46851;49.160;8.980;2023-07-24T10:26:25;16.98;;;7.72;;
60979;SDS011;46851;49.160;8.980;2023-07-24T10:28:51;14.93;;;7.60;;
60979;SDS011;46851;49.160;8.980;2023-07-24T10:31:24;13.50;;;7.72;;
60979;SDS011;46851;49.160;8.980;2023-07-24T10:33:52;11.05;;;7.15;;
60979;SDS011;46851;49.160;8.980;2023-07-24T10:36:18;14.52;;;7.55;;
60979;SDS011;46851;49.160;8.980;2023-07-24T10:38:45;14.55;;;9.13;;
60979;SDS011;46851;49.160;8.980;2023-07-24T10:41:11;14.35;;;7.57;;
60979;SDS011;46851;49.160;8.980;2023-07-24T10:46:06;15.73;;;7.55;;
60979;SDS011;46851;49.160;8.980;2023-07-24T10:48:33;13.20;;;8.02;;
60979;SDS011;46851;49.160;8.980;2023-07-24T10:51:05;12.95;;;8.07;;
60979;SDS011;46851;49.160;8.980;2023-07-24T10:53:31;16.10;;;8.27;;
60979;SDS011;46851;49.160;8.980;2023-07-24T10:55:59;14.77;;;8.90;;
60979;SDS011;46851;49.160;8.980;2023-07-24T10:58:25;13.25;;;8.80;;
60979;SDS011;46851;49.160;8.980;2023-07-24T11:00:52;16.88;;;9.25;;
60979;SDS011;46851;49.160;8.980;2023-07-24T11:03:18;14.15;;;8.80;;
60979;SDS011;46851;49.160;8.980;2023-07-24T11:05:45;14.70;;;9.50;;
60979;SDS011;46851;49.160;8.980;2023-07-24T11:08:13;11.77;;;7.78;;
60979;SDS011;46851;49.160;8.980;2023-07-24T11:10:53;15.35;;;8.55;;
60979;SDS011;46851;49.160;8.980;2023-07-24T11:13:20;15.18;;;9.80;;
60979;SDS011;46851;49.160;8.980;2023-07-24T11:15:47;11.70;;;7.55;;
60979;SDS011;46851;49.160;8.980;2023-07-24T11:18:13;14.80;;;8.60;;
60979;SDS011;46851;49.160;8.980;2023-07-24T11:20:44;16.10;;;8.43;;
60979;SDS011;46851;49.160;8.980;2023-07-24T11:23:11;15.68;;;8.13;;
60979;SDS011;46851;49.160;8.980;2023-07-24T11:25:37;12.07;;;7.75;;
60979;SDS011;46851;49.160;8.980;2023-07-24T11:28:06;16.90;;;8.02;;
60979;SDS011;46851;49.160;8.980;2023-07-24T11:30:32;11.95;;;8.18;;
60979;SDS011;46851;49.160;8.980;2023-07-24T11:33:00;14.30;;;8.35;;
60979;SDS011;46851;49.160;8.980;2023-07-24T11:35:26;17.48;;;8.18;;
60979;SDS011;46851;49.160;8.980;2023-07-24T11:37:52;14.40;;;7.65;;
60979;SDS011;46851;49.160;8.980;2023-07-24T11:40:18;13.23;;;7.70;;
60979;SDS011;46851;49.160;8.980;2023-07-24T11:42:48;13.60;;;8.40;;
60979;SDS011;46851;49.160;8.980;2023-07-24T11:45:14;12.35;;;8.40;;
60979;SDS011;46851;49.160;8.980;2023-07-24T11:47:41;13.30;;;7.95;;
60979;SDS011;46851;49.160;8.980;2023-07-24T11:50:07;14.82;;;7.90;;
60979;SDS011;46851;49.160;8.980;2023-07-24T11:52:43;12.27;;;6.97;;
60979;SDS011;46851;49.160;8.980;2023-07-24T11:55:13;13.02;;;6.78;;
60979;SDS011;46851;49.160;8.980;2023-07-24T11:57:40;12.75;;;7.93;;
60979;SDS011;46851;49.160;8.980;2023-07-24T12:00:16;11.35;;;7.25;;
60979;SDS011;46851;49.160;8.980;2023-07-24T12:02:43;13.20;;;7.20;;
60979;SDS011;46851;49.160;8.980;2023-07-24T12:05:09;11.40;;;7.60;;
60979;SDS011;46851;49.160;8.980;2023-07-24T12:07:35;12.10;;;7.20;;
60979;SDS011;46851;49.160;8.980;2023-07-24T12:10:02;12.38;;;7.63;;
60979;SDS011;46851;49.160;8.980;2023-07-24T12:15:04;10.80;;;6.65;;
60979;SDS011;46851;49.160;8.980;2023-07-24T12:17:30;11.13;;;6.75;;
60979;SDS011;46851;49.160;8.980;2023-07-24T12:19:56;11.00;;;7.00;;
60979;SDS011;46851;49.160;8.980;2023-07-24T12:22:22;12.77;;;7.80;;
60979;SDS011;46851;49.160;8.980;2023-07-24T12:24:48;11.55;;;7.03;;
60979;SDS011;46851;49.160;8.980;2023-07-24T12:27:14;10.68;;;7.13;;
60979;SDS011;46851;49.160;8.980;2023-07-24T12:29:40;13.43;;;6.80;;
60979;SDS011;46851;49.160;8.980;2023-07-24T12:32:06;11.30;;;6.70;;
60979;SDS011;46851;49.160;8.980;2023-07-24T12:34:32;11.45;;;6.28;;
60979;SDS011;46851;49.160;8.980;2023-07-24T12:36:58;12.48;;;6.90;;
60979;SDS011;46851;49.160;8.980;2023-07-24T12:39:24;11.02;;;7.22;;
60979;SDS011;46851;49.160;8.980;2023-07-24T12:41:50;9.65;;;6.20;;
60979;SDS011;46851;49.160;8.980;2023-07-24T12:44:16;13.18;;;6.78;;
60979;SDS011;46851;49.160;8.980;2023-07-24T12:46:42;10.93;;;6.20;;
60979;SDS011;46851;49.160;8.980;2023-07-24T12:49:08;12.38;;;5.68;;
60979;SDS011;46851;49.160;8.980;2023-07-24T12:51:34;11.43;;;6.72;;
60979;SDS011;46851;49.160;8.980;2023-07-24T12:54:00;9.75;;;6.35;;
60979;SDS011;46851;49.160;8.980;2023-07-24T12:56:26;10.77;;;6.28;;
60979;SDS011;46851;49.160;8.980;2023-07-24T12:58:52;10.65;;;5.63;;
60979;SDS011;46851;49.160;8.980;2023-07-24T13:01:19;11.52;;;6.05;;
60979;SDS011;46851;49.160;8.980;2023-07-24T13:03:45;10.73;;;6.13;;
60979;SDS011;46851;49.160;8.980;2023-07-24T13:06:11;9.07;;;5.80;;
60979;SDS011;46851;49.160;8.980;2023-07-24T13:08:37;11.38;;;6.85;;
60979;SDS011;46851;49.160;8.980;2023-07-24T13:11:03;11.13;;;6.68;;
60979;SDS011;46851;49.160;8.980;2023-07-24T13:13:29;10.90;;;6.45;;
60979;SDS011;46851;49.160;8.980;2023-07-24T13:15:55;8.20;;;5.25;;
60979;SDS011;46851;49.160;8.980;2023-07-24T13:18:21;10.18;;;6.53;;
60979;SDS011;46851;49.160;8.980;2023-07-24T13:20:47;9.85;;;5.68;;
60979;SDS011;46851;49.160;8.980;2023-07-24T13:23:13;10.13;;;6.50;;
60979;SDS011;46851;49.160;8.980;2023-07-24T13:25:39;12.95;;;6.25;;
60979;SDS011;46851;49.160;8.980;2023-07-24T13:28:05;9.63;;;5.60;;
60979;SDS011;46851;49.160;8.980;2023-07-24T13:30:31;8.77;;;5.70;;
60979;SDS011;46851;49.160;8.980;2023-07-24T13:32:57;10.13;;;6.10;;
60979;SDS011;46851;49.160;8.980;2023-07-24T13:35:23;9.20;;;5.68;;
60979;SDS011;46851;49.160;8.980;2023-07-24T13:37:49;9.70;;;5.72;;
60979;SDS011;46851;49.160;8.980;2023-07-24T13:40:15;7.60;;;5.45;;
60979;SDS011;46851;49.160;8.980;2023-07-24T13:42:41;12.48;;;6.38;;
60979;SDS011;46851;49.160;8.980;2023-07-24T13:45:07;6.57;;;5.03;;
60979;SDS011;46851;49.160;8.980;2023-07-24T13:47:33;8.70;;;5.65;;
60979;SDS011;46851;49.160;8.980;2023-07-24T13:49:59;9.00;;;6.05;;
60979;SDS011;46851;49.160;8.980;2023-07-24T13:52:28;11.10;;;5.75;;
60979;SDS011;46851;49.160;8.980;2023-07-24T13:54:54;10.95;;;5.85;;
60979;SDS011;46851;49.160;8.980;2023-07-24T13:57:20;9.38;;;6.05;;
60979;SDS011;46851;49.160;8.980;2023-07-24T13:59:47;8.25;;;5.28;;
60979;SDS011;46851;49.160;8.980;2023-07-24T14:02:13;10.70;;;6.22;;
60979;SDS011;46851;49.160;8.980;2023-07-24T14:04:39;8.57;;;5.22;;
60979;SDS011;46851;49.160;8.980;2023-07-24T14:07:05;10.63;;;5.75;;
60979;SDS011;46851;49.160;8.980;2023-07-24T14:09:31;8.27;;;5.45;;
60979;SDS011;46851;49.160;8.980;2023-07-24T14:11:59;7.80;;;5.50;;
60979;SDS011;46851;49.160;8.980;2023-07-24T14:14:25;11.18;;;5.60;;
60979;SDS011;46851;49.160;8.980;2023-07-24T14:16:52;8.20;;;5.18;;
60979;SDS011;46851;49.160;8.980;2023-07-24T14:19:18;8.73;;;5.25;;
60979;SDS011;46851;49.160;8.980;2023-07-24T14:21:44;8.52;;;5.18;;
60979;SDS011;46851;49.160;8.980;2023-07-24T14:24:10;7.65;;;4.75;;
60979;SDS011;46851;49.160;8.980;2023-07-24T14:26:36;8.80;;;5.20;;
60979;SDS011;46851;49.160;8.980;2023-07-24T14:29:03;12.55;;;6.03;;
60979;SDS011;46851;49.160;8.980;2023-07-24T14:31:29;9.00;;;5.15;;
60979;SDS011;46851;49.160;8.980;2023-07-24T14:33:55;10.13;;;5.70;;
60979;SDS011;46851;49.160;8.980;2023-07-24T14:36:21;9.05;;;5.45;;
60979;SDS011;46851;49.160;8.980;2023-07-24T14:38:47;9.48;;;5.32;;
60979;SDS011;46851;49.160;8.980;2023-07-24T14:41:13;8.55;;;5.32;;
60979;SDS011;46851;49.160;8.980;2023-07-24T14:43:40;9.23;;;5.28;;
60979;SDS011;46851;49.160;8.980;2023-07-24T14:46:06;8.57;;;5.40;;